Time;durP1;ratioP1;P1;durP2;ratioP2;P2;SDS_P1;SDS_P2;PMS_P1;PMS_P2;Temp;Humidity;BMP_temperature;BMP_pressure;BME280_temperature;BME280_humidity;BME280_pressure;Samples;Min_cycle;Max_cycle;Signal;HPM_P1;HPM_P2
2022/02/18 00:00:33;;;;;;;8.27;3.35;;;;;;;;;;4976904;28;20049;-71
2022/02/18 00:03:01;;;;;;;11.20;3.40;;;;;;;;;;4976726;28;20051;-70
2022/02/18 00:05:30;;;;;;;5.18;3.00;;;;;;;;;;4976370;28;20046;-70
2022/02/18 00:07:58;;;;;;;8.27;3.70;;;;;;;;;;4976769;28;20053;-70
2022/02/18 00:10:25;;;;;;;6.45;3.08;;;;;;;;;;4976912;28;20150;-71
2022/02/18 00:12:53;;;;;;;8.55;3.42;;;;;;;;;;4975287;28;20047;-69
2022/02/18 00:15:20;;;;;;;6.90;3.42;;;;;;;;;;4959365;28;20046;-70
2022/02/18 00:17:48;;;;;;;6.55;3.00;;;;;;;;;;4976872;28;20047;-70
2022/02/18 00:20:21;;;;;;;7.78;3.10;;;;;;;;;;4975403;28;20054;-70
2022/02/18 00:22:48;;;;;;;6.18;3.10;;;;;;;;;;4975389;28;20047;-71
2022/02/18 00:25:16;;;;;;;11.90;3.65;;;;;;;;;;4975227;28;20098;-70
2022/02/18 00:27:45;;;;;;;7.18;3.42;;;;;;;;;;4976223;28;20061;-70
2022/02/18 00:30:12;;;;;;;5.13;2.70;;;;;;;;;;4975486;28;20047;-71
2022/02/18 00:32:40;;;;;;;6.25;3.50;;;;;;;;;;4958893;28;20043;-69
2022/02/18 00:35:08;;;;;;;7.60;2.72;;;;;;;;;;4959360;28;20038;-71
2022/02/18 00:37:43;;;;;;;3.50;2.85;;;;;;;;;;4976309;28;20039;-70
2022/02/18 00:40:12;;;;;;;8.60;3.60;;;;;;;;;;4975885;28;20479;-69
2022/02/18 00:42:40;;;;;;;8.15;3.55;;;;;;;;;;4975707;28;20134;-71
2022/02/18 00:45:08;;;;;;;7.85;3.17;;;;;;;;;;4958547;28;20602;-69
2022/02/18 00:47:40;;;;;;;5.20;2.78;;;;;;;;;;4958586;28;20050;-70
2022/02/18 00:50:10;;;;;;;5.55;3.17;;;;;;;;;;4958177;28;20098;-69
2022/02/18 00:52:37;;;;;;;6.07;2.75;;;;;;;;;;4976001;28;20383;-70
2022/02/18 00:55:08;;;;;;;5.10;3.25;;;;;;;;;;4975830;28;20134;-70
2022/02/18 00:57:37;;;;;;;4.97;2.92;;;;;;;;;;4958624;28;20093;-70
2022/02/18 01:00:05;;;;;;;6.50;2.70;;;;;;;;;;4975604;28;20066;-69
2022/02/18 01:02:32;;;;;;;5.80;3.30;;;;;;;;;;4975425;28;20054;-69
2022/02/18 01:05:03;;;;;;;6.88;3.17;;;;;;;;;;4975308;28;20474;-71
2022/02/18 01:07:31;;;;;;;4.93;2.80;;;;;;;;;;4958364;28;20039;-69
2022/02/18 01:09:59;;;;;;;5.55;3.10;;;;;;;;;;4958154;28;20517;-70
2022/02/18 01:12:26;;;;;;;4.93;3.38;;;;;;;;;;4975208;28;20043;-70
2022/02/18 01:14:54;;;;;;;8.20;3.72;;;;;;;;;;4975822;28;20045;-69
2022/02/18 01:17:21;;;;;;;6.95;3.42;;;;;;;;;;4975168;28;20043;-71
2022/02/18 01:19:49;;;;;;;5.82;3.20;;;;;;;;;;4957982;28;20047;-70
2022/02/18 01:22:17;;;;;;;7.85;3.60;;;;;;;;;;4975241;28;20125;-70
2022/02/18 01:24:47;;;;;;;9.13;3.03;;;;;;;;;;4975172;28;20474;-70
2022/02/18 01:27:17;;;;;;;5.95;3.35;;;;;;;;;;4957788;28;20093;-70
2022/02/18 01:29:45;;;;;;;7.50;3.22;;;;;;;;;;4974936;28;20066;-71
2022/02/18 01:32:13;;;;;;;4.78;2.85;;;;;;;;;;4975312;28;20374;-71
2022/02/18 01:34:41;;;;;;;4.80;2.70;;;;;;;;;;4958094;28;20067;-71
2022/02/18 01:37:10;;;;;;;6.47;2.33;;;;;;;;;;4974761;28;20057;-71
2022/02/18 01:39:38;;;;;;;6.93;2.97;;;;;;;;;;4938866;29;20084;-70
2022/02/18 01:42:05;;;;;;;5.00;2.45;;;;;;;;;;4955084;29;20051;-71
2022/02/18 01:44:36;;;;;;;3.78;2.25;;;;;;;;;;4955911;29;20055;-70
2022/02/18 01:47:16;;;;;;;2.28;1.95;;;;;;;;;;4938550;29;20495;-70
2022/02/18 01:49:45;;;;;;;3.10;2.13;;;;;;;;;;4956019;29;20051;-70
2022/02/18 01:52:13;;;;;;;9.98;2.33;;;;;;;;;;4955615;29;20126;-70
2022/02/18 01:54:40;;;;;;;4.72;2.08;;;;;;;;;;4955257;29;20380;-70
2022/02/18 01:57:09;;;;;;;4.78;2.30;;;;;;;;;;4955785;29;20035;-70
2022/02/18 01:59:38;;;;;;;5.53;1.90;;;;;;;;;;4938247;29;20490;-70
2022/02/18 02:02:06;;;;;;;6.05;2.17;;;;;;;;;;4954491;28;20051;-71
2022/02/18 02:04:34;;;;;;;3.30;2.20;;;;;;;;;;4955226;29;20043;-69
2022/02/18 02:07:04;;;;;;;5.38;2.25;;;;;;;;;;4955409;29;20074;-70
2022/02/18 02:09:36;;;;;;;5.28;2.30;;;;;;;;;;4938313;29;20529;-69
2022/02/18 02:12:05;;;;;;;6.03;2.35;;;;;;;;;;4938068;29;20127;-70
2022/02/18 02:14:41;;;;;;;6.55;2.50;;;;;;;;;;4938292;29;20102;-71
2022/02/18 02:17:10;;;;;;;4.20;2.17;;;;;;;;;;4937872;29;20062;-70
2022/02/18 02:19:40;;;;;;;3.78;1.80;;;;;;;;;;4937632;29;20043;-70
2022/02/18 02:22:08;;;;;;;4.88;2.00;;;;;;;;;;4938001;29;20476;-70
2022/02/18 02:24:36;;;;;;;3.95;2.00;;;;;;;;;;4937650;29;20506;-70
2022/02/18 02:27:06;;;;;;;6.25;1.85;;;;;;;;;;4937841;28;20050;-70
2022/02/18 02:29:42;;;;;;;4.07;1.88;;;;;;;;;;4937648;29;20051;-70
2022/02/18 02:32:10;;;;;;;5.55;2.10;;;;;;;;;;4938019;29;20047;-70
2022/02/18 02:34:40;;;;;;;5.00;1.70;;;;;;;;;;4937957;29;20039;-70
2022/02/18 02:37:10;;;;;;;3.42;1.88;;;;;;;;;;4937864;29;20468;-70
2022/02/18 02:39:38;;;;;;;4.07;1.65;;;;;;;;;;4954874;29;20063;-70
2022/02/18 02:42:06;;;;;;;4.95;2.20;;;;;;;;;;4954900;29;20063;-69
2022/02/18 02:44:37;;;;;;;3.25;1.83;;;;;;;;;;4937507;29;20410;-70
2022/02/18 02:47:13;;;;;;;4.55;1.70;;;;;;;;;;4937776;29;20142;-70
2022/02/18 02:49:41;;;;;;;5.05;2.00;;;;;;;;;;4937779;29;20048;-70
2022/02/18 02:52:09;;;;;;;2.78;1.60;;;;;;;;;;4937707;29;20075;-70
2022/02/18 02:54:40;;;;;;;3.17;1.60;;;;;;;;;;4937279;29;20130;-70
2022/02/18 02:57:14;;;;;;;2.47;1.70;;;;;;;;;;4937980;29;20039;-70
2022/02/18 02:59:54;;;;;;;3.35;2.00;;;;;;;;;;4937915;29;20043;-70
2022/02/18 03:02:22;;;;;;;6.40;1.75;;;;;;;;;;4937903;29;20048;-70
2022/02/18 03:04:50;;;;;;;2.83;1.77;;;;;;;;;;4937383;29;20051;-70
2022/02/18 03:07:20;;;;;;;3.42;1.80;;;;;;;;;;4937529;29;20051;-71
2022/02/18 03:10:01;;;;;;;3.55;1.70;;;;;;;;;;4937426;29;20051;-70
2022/02/18 03:12:31;;;;;;;4.40;1.80;;;;;;;;;;4923494;29;20509;-69
2022/02/18 03:15:07;;;;;;;1.90;1.70;;;;;;;;;;4941169;29;20051;-70
2022/02/18 03:17:37;;;;;;;7.10;2.20;;;;;;;;;;4940895;29;20043;-70
2022/02/18 03:20:29;;;;;;;3.90;2.10;;;;;;;;;;4941183;29;20066;-70
2022/02/18 03:22:57;;;;;;;7.88;2.20;;;;;;;;;;4940865;29;20051;-70
2022/02/18 03:25:25;;;;;;;4.88;2.10;;;;;;;;;;4940334;29;20059;-72
2022/02/18 03:27:53;;;;;;;5.65;2.17;;;;;;;;;;4958477;28;20079;-71
2022/02/18 03:30:25;;;;;;;3.63;2.08;;;;;;;;;;4940739;29;20141;-69
2022/02/18 03:32:55;;;;;;;7.28;2.33;;;;;;;;;;4940329;29;20050;-70
2022/02/18 03:35:25;;;;;;;4.70;2.10;;;;;;;;;;4941094;29;20159;-70
2022/02/18 03:37:54;;;;;;;7.03;2.67;;;;;;;;;;4941065;29;20051;-71
2022/02/18 03:40:27;;;;;;;3.83;2.25;;;;;;;;;;4925553;29;20050;-71
2022/02/18 03:43:04;;;;;;;6.03;2.80;;;;;;;;;;4940695;29;20047;-71
2022/02/18 03:45:38;;;;;;;3.65;1.90;;;;;;;;;;4940278;29;20118;-70
2022/02/18 03:48:20;;;;;;;5.90;1.80;;;;;;;;;;4940804;29;20086;-71
2022/02/18 03:50:50;;;;;;;4.90;2.05;;;;;;;;;;4940683;29;20102;-72
2022/02/18 03:53:21;;;;;;;9.30;2.33;;;;;;;;;;4957600;29;20043;-70
2022/02/18 03:56:01;;;;;;;5.07;2.20;;;;;;;;;;4940767;29;20054;-71
2022/02/18 03:58:33;;;;;;;4.95;1.98;;;;;;;;;;4939874;29;20467;-69
2022/02/18 04:01:04;;;;;;;3.08;2.00;;;;;;;;;;4941833;29;20381;-71
2022/02/18 04:03:31;;;;;;;5.57;2.08;;;;;;;;;;4940571;29;20047;-71
2022/02/18 04:06:17;;;;;;;5.25;2.30;;;;;;;;;;4957504;29;20053;-70
2022/02/18 04:08:52;;;;;;;7.25;2.17;;;;;;;;;;4940406;29;20094;-70
2022/02/18 04:11:52;;;;;;;7.78;2.22;;;;;;;;;;4952661;29;20388;-71
2022/02/18 04:14:20;;;;;;;5.30;2.45;;;;;;;;;;4956344;28;20047;-70
2022/02/18 04:16:59;;;;;;;4.65;2.10;;;;;;;;;;4940006;29;20062;-70
2022/02/18 04:19:30;;;;;;;6.85;2.50;;;;;;;;;;4955763;28;20511;-70
2022/02/18 04:22:22;;;;;;;5.35;1.95;;;;;;;;;;4940009;29;20039;-69
2022/02/18 04:24:51;;;;;;;6.35;2.42;;;;;;;;;;4939213;29;20051;-70
2022/02/18 04:27:21;;;;;;;6.35;2.55;;;;;;;;;;4957025;28;20039;-71
2022/02/18 04:29:48;;;;;;;4.15;3.13;;;;;;;;;;4956840;28;20061;-70
2022/02/18 04:32:16;;;;;;;7.15;3.10;;;;;;;;;;4956816;29;20043;-70
2022/02/18 04:34:43;;;;;;;9.05;3.30;;;;;;;;;;4956841;29;20036;-70
2022/02/18 04:37:11;;;;;;;8.38;3.30;;;;;;;;;;4957175;29;20049;-71
2022/02/18 04:39:39;;;;;;;6.80;3.70;;;;;;;;;;4956560;29;20043;-71
2022/02/18 04:42:08;;;;;;;9.77;3.90;;;;;;;;;;4938910;29;20130;-70
2022/02/18 04:44:43;;;;;;;8.02;3.72;;;;;;;;;;4939189;29;20050;-70
2022/02/18 04:47:10;;;;;;;12.10;3.47;;;;;;;;;;4956644;29;20702;-70
2022/02/18 04:49:39;;;;;;;6.22;3.30;;;;;;;;;;4956729;29;20032;-71
2022/02/18 04:52:14;;;;;;;10.57;3.50;;;;;;;;;;4956838;29;20046;-71
2022/02/18 04:54:43;;;;;;;13.98;3.40;;;;;;;;;;4956544;29;20047;-69
2022/02/18 04:57:11;;;;;;;6.47;2.95;;;;;;;;;;4956452;29;20051;-69
2022/02/18 04:59:39;;;;;;;8.93;2.90;;;;;;;;;;4956269;29;20411;-70
2022/02/18 05:02:07;;;;;;;9.05;3.60;;;;;;;;;;4956656;29;20035;-70
2022/02/18 05:04:34;;;;;;;5.47;3.20;;;;;;;;;;4938858;29;20415;-71
2022/02/18 05:07:01;;;;;;;7.32;3.83;;;;;;;;;;4939073;29;20126;-69
2022/02/18 05:09:29;;;;;;;7.25;3.10;;;;;;;;;;4956415;29;20414;-70
2022/02/18 05:11:56;;;;;;;8.25;3.38;;;;;;;;;;4956421;29;20098;-70
2022/02/18 05:14:24;;;;;;;7.95;3.28;;;;;;;;;;4956391;29;20040;-69
2022/02/18 05:16:51;;;;;;;8.98;3.60;;;;;;;;;;4956146;29;20046;-70
2022/02/18 05:19:18;;;;;;;8.50;3.20;;;;;;;;;;4955897;29;20043;-70
2022/02/18 05:21:46;;;;;;;9.40;3.63;;;;;;;;;;4955784;29;20046;-70
2022/02/18 05:24:13;;;;;;;5.53;3.40;;;;;;;;;;4956032;29;20365;-70
2022/02/18 05:26:43;;;;;;;10.63;4.18;;;;;;;;;;4938866;29;20078;-70
2022/02/18 05:29:11;;;;;;;9.43;3.88;;;;;;;;;;4955779;28;20373;-70
2022/02/18 05:31:45;;;;;;;8.18;3.78;;;;;;;;;;4955735;29;20527;-71
2022/02/18 05:34:13;;;;;;;6.78;3.80;;;;;;;;;;4955811;29;20054;-70
2022/02/18 05:36:41;;;;;;;12.07;4.07;;;;;;;;;;4955543;28;20047;-70
2022/02/18 05:39:12;;;;;;;6.85;3.50;;;;;;;;;;4955616;29;20522;-69
2022/02/18 05:41:46;;;;;;;11.23;3.83;;;;;;;;;;4955142;29;20491;-71
2022/02/18 05:44:13;;;;;;;8.80;4.20;;;;;;;;;;4955778;29;20511;-71
2022/02/18 05:46:41;;;;;;;13.90;4.28;;;;;;;;;;4968507;28;20038;-70
2022/02/18 05:49:08;;;;;;;9.10;4.68;;;;;;;;;;4974314;28;20049;-71
2022/02/18 05:51:37;;;;;;;10.07;4.40;;;;;;;;;;4974612;28;20070;-70
2022/02/18 05:54:05;;;;;;;11.00;4.35;;;;;;;;;;4974333;28;20520;-71
2022/02/18 05:56:32;;;;;;;7.65;4.28;;;;;;;;;;4974526;28;20038;-70
2022/02/18 05:59:02;;;;;;;11.13;4.80;;;;;;;;;;4974559;28;20118;-71
2022/02/18 06:01:32;;;;;;;11.60;4.20;;;;;;;;;;4974655;28;20037;-69
2022/02/18 06:03:59;;;;;;;9.18;3.75;;;;;;;;;;4974356;28;20458;-70
2022/02/18 06:06:27;;;;;;;5.47;3.10;;;;;;;;;;4974424;28;20059;-71
2022/02/18 06:08:55;;;;;;;6.30;4.13;;;;;;;;;;4974544;28;20131;-71
2022/02/18 06:11:24;;;;;;;9.32;3.17;;;;;;;;;;4974212;28;20623;-69
2022/02/18 06:13:56;;;;;;;7.55;3.17;;;;;;;;;;4974205;28;20042;-67
2022/02/18 06:16:24;;;;;;;8.80;3.10;;;;;;;;;;4974119;28;20122;-67
2022/02/18 06:18:51;;;;;;;9.63;3.38;;;;;;;;;;4973916;28;20043;-69
2022/02/18 06:21:18;;;;;;;5.85;3.17;;;;;;;;;;4974195;28;20392;-69
2022/02/18 06:23:57;;;;;;;5.70;2.40;;;;;;;;;;4973988;28;20050;-69
2022/02/18 06:26:25;;;;;;;6.00;3.15;;;;;;;;;;4974023;28;20053;-69
2022/02/18 06:28:52;;;;;;;6.22;3.00;;;;;;;;;;4973242;28;20061;-69
2022/02/18 06:31:20;;;;;;;7.88;2.72;;;;;;;;;;4973510;28;20055;-69
2022/02/18 06:33:47;;;;;;;3.67;2.20;;;;;;;;;;4973371;28;20042;-70
2022/02/18 06:36:15;;;;;;;4.20;2.50;;;;;;;;;;4957242;28;20047;-69
2022/02/18 06:38:44;;;;;;;9.60;2.80;;;;;;;;;;4973889;28;20549;-69
2022/02/18 06:41:12;;;;;;;4.80;2.60;;;;;;;;;;4973683;28;20051;-69
2022/02/18 06:43:39;;;;;;;5.40;2.50;;;;;;;;;;4973761;28;20043;-70
2022/02/18 06:46:09;;;;;;;7.75;2.80;;;;;;;;;;4973542;28;20122;-69
2022/02/18 06:48:36;;;;;;;10.32;2.75;;;;;;;;;;4975634;28;20101;-68
2022/02/18 06:51:05;;;;;;;7.75;2.42;;;;;;;;;;4976604;28;20119;-69
2022/02/18 06:53:33;;;;;;;5.95;2.30;;;;;;;;;;4975085;28;20659;-68
2022/02/18 06:56:03;;;;;;;8.07;2.78;;;;;;;;;;4976991;28;20517;-69
2022/02/18 06:58:30;;;;;;;6.95;2.13;;;;;;;;;;4976717;28;20490;-68
2022/02/18 07:00:58;;;;;;;6.05;2.33;;;;;;;;;;4976826;28;20069;-69
2022/02/18 07:03:25;;;;;;;5.35;2.30;;;;;;;;;;4977596;28;20050;-69
2022/02/18 07:05:55;;;;;;;9.75;2.70;;;;;;;;;;4977295;28;20047;-69
2022/02/18 07:08:22;;;;;;;8.48;2.80;;;;;;;;;;4978037;28;20046;-68
2022/02/18 07:10:55;;;;;;;12.98;3.65;;;;;;;;;;4977586;28;20053;-68
2022/02/18 07:13:23;;;;;;;9.40;3.38;;;;;;;;;;4977708;28;20043;-68
2022/02/18 07:15:51;;;;;;;9.27;5.10;;;;;;;;;;4977737;28;20404;-69
2022/02/18 07:18:19;;;;;;;13.57;7.40;;;;;;;;;;4976825;28;20119;-68
2022/02/18 07:20:49;;;;;;;16.98;10.32;;;;;;;;;;4977312;28;20039;-68
2022/02/18 07:23:16;;;;;;;23.75;14.55;;;;;;;;;;4977221;28;20122;-68
2022/02/18 07:25:45;;;;;;;23.80;14.13;;;;;;;;;;4960296;28;20039;-69
2022/02/18 07:28:13;;;;;;;9.05;4.30;;;;;;;;;;5064003;23;20484;-73
2022/02/18 07:30:41;;;;;;;6.00;2.40;;;;;;;;;;4976638;28;20050;-72
2022/02/18 07:33:10;;;;;;;8.93;4.30;;;;;;;;;;4976665;28;20393;-75
2022/02/18 07:35:38;;;;;;;10.30;6.68;;;;;;;;;;4975980;28;20457;-72
2022/02/18 07:38:06;;;;;;;6.72;1.95;;;;;;;;;;4959026;28;20047;-75
2022/02/18 07:40:35;;;;;;;7.63;4.07;;;;;;;;;;4959145;28;20035;-74
2022/02/18 07:43:02;;;;;;;9.48;4.18;;;;;;;;;;4976216;28;20049;-72
2022/02/18 07:45:54;;;;;;;7.15;2.83;;;;;;;;;;4976173;28;20053;-74
2022/02/18 07:48:26;;;;;;;8.85;3.08;;;;;;;;;;4976244;28;20061;-74
2022/02/18 07:50:54;;;;;;;10.27;3.33;;;;;;;;;;4976750;28;20122;-72
2022/02/18 07:53:21;;;;;;;8.30;3.35;;;;;;;;;;4976005;28;20506;-73
2022/02/18 07:55:49;;;;;;;11.70;3.60;;;;;;;;;;4958499;28;20149;-73
2022/02/18 07:58:18;;;;;;;6.85;2.40;;;;;;;;;;4967838;28;20378;-74
2022/02/18 08:00:45;;;;;;;4.78;1.95;;;;;;;;;;4975358;28;20058;-72
2022/02/18 08:03:13;;;;;;;4.60;2.20;;;;;;;;;;4975976;28;20046;-73
2022/02/18 08:05:40;;;;;;;6.75;2.83;;;;;;;;;;4975504;28;20049;-72
2022/02/18 08:08:11;;;;;;;10.63;2.80;;;;;;;;;;4958508;28;20407;-72
2022/02/18 08:10:38;;;;;;;6.30;2.97;;;;;;;;;;4975895;28;20055;-72
2022/02/18 08:13:07;;;;;;;11.77;3.13;;;;;;;;;;4975697;28;20049;-72
2022/02/18 08:15:35;;;;;;;9.25;2.80;;;;;;;;;;4958283;28;20241;-73
2022/02/18 08:18:05;;;;;;;4.20;2.70;;;;;;;;;;4975325;28;20078;-72
2022/02/18 08:20:32;;;;;;;6.93;3.08;;;;;;;;;;4975734;28;20042;-72
2022/02/18 08:23:00;;;;;;;5.40;2.80;;;;;;;;;;4975787;28;20061;-74
2022/02/18 08:25:28;;;;;;;5.60;2.80;;;;;;;;;;4975541;28;20509;-71
2022/02/18 08:27:55;;;;;;;22.10;11.25;;;;;;;;;;4975511;28;20061;-72
2022/02/18 08:30:23;;;;;;;18.58;10.32;;;;;;;;;;4975216;28;20042;-73
2022/02/18 08:32:51;;;;;;;7.18;2.42;;;;;;;;;;4975734;28;20121;-73
2022/02/18 08:35:19;;;;;;;3.75;1.60;;;;;;;;;;4957865;28;20042;-72
2022/02/18 08:37:47;;;;;;;6.32;2.05;;;;;;;;;;4975386;28;20074;-72
2022/02/18 08:40:14;;;;;;;5.65;1.73;;;;;;;;;;4975358;28;20546;-73
2022/02/18 08:42:48;;;;;;;2.88;1.40;;;;;;;;;;4975471;28;20456;-71
2022/02/18 08:45:16;;;;;;;5.35;2.35;;;;;;;;;;4975372;28;20047;-74
2022/02/18 08:47:45;;;;;;;4.18;1.40;;;;;;;;;;4975377;28;20039;-72
2022/02/18 08:50:14;;;;;;;15.98;9.68;;;;;;;;;;4975495;28;20394;-72
2022/02/18 08:52:43;;;;;;;5.05;3.60;;;;;;;;;;4958173;28;20047;-73
2022/02/18 08:55:15;;;;;;;6.45;1.83;;;;;;;;;;4974806;28;20122;-74
2022/02/18 08:57:46;;;;;;;5.18;1.50;;;;;;;;;;4957640;28;20043;-73
2022/02/18 09:00:19;;;;;;;4.43;1.90;;;;;;;;;;4974798;28;20046;-72
2022/02/18 09:02:47;;;;;;;5.10;2.70;;;;;;;;;;4957437;28;20043;-73
2022/02/18 09:05:17;;;;;;;28.15;13.88;;;;;;;;;;4966970;28;20350;-73
2022/02/18 09:07:46;;;;;;;20.27;8.13;;;;;;;;;;4974646;28;20085;-71
2022/02/18 09:10:15;;;;;;;15.20;8.30;;;;;;;;;;4974450;28;20049;-72
2022/02/18 09:12:42;;;;;;;68.55;30.38;;;;;;;;;;4974848;28;20512;-72
2022/02/18 09:15:16;;;;;;;21.85;12.20;;;;;;;;;;4957673;28;20083;-73
2022/02/18 09:17:52;;;;;;;3.63;1.63;;;;;;;;;;4974333;28;20387;-71
2022/02/18 09:20:20;;;;;;;4.32;1.40;;;;;;;;;;4957710;28;20117;-71
2022/02/18 09:22:48;;;;;;;58.28;31.92;;;;;;;;;;4974700;28;20137;-73
2022/02/18 09:25:16;;;;;;;17.40;8.73;;;;;;;;;;4974549;28;20046;-73
2022/02/18 09:27:47;;;;;;;3.95;1.90;;;;;;;;;;4974463;28;20047;-72
2022/02/18 09:30:15;;;;;;;43.80;21.58;;;;;;;;;;4973573;28;20047;-73
2022/02/18 09:33:04;;;;;;;9.60;4.95;;;;;;;;;;4974460;28;20086;-73
2022/02/18 09:35:35;;;;;;;3.20;2.13;;;;;;;;;;4974281;28;20098;-72
2022/02/18 09:38:05;;;;;;;5.82;1.95;;;;;;;;;;4957548;28;20039;-73
2022/02/18 09:40:33;;;;;;;3.15;2.05;;;;;;;;;;4974169;28;20050;-71
2022/02/18 09:43:01;;;;;;;4.25;1.85;;;;;;;;;;4973944;28;20424;-74
2022/02/18 09:45:29;;;;;;;4.53;1.63;;;;;;;;;;4973997;28;20042;-73
2022/02/18 09:47:57;;;;;;;3.70;1.63;;;;;;;;;;4956077;28;20038;-74
2022/02/18 09:50:25;;;;;;;10.55;5.07;;;;;;;;;;4954777;28;20141;-73
2022/02/18 09:53:13;;;;;;;5.07;1.90;;;;;;;;;;4972875;28;20057;-71
2022/02/18 09:55:44;;;;;;;4.35;1.73;;;;;;;;;;4974032;28;20039;-72
2022/02/18 09:58:16;;;;;;;2.13;1.30;;;;;;;;;;4974017;28;20122;-71
2022/02/18 10:00:45;;;;;;;42.60;27.52;;;;;;;;;;4973955;28;20070;-75
2022/02/18 10:03:13;;;;;;;4.30;1.95;;;;;;;;;;4973958;28;20077;-72
2022/02/18 10:05:48;;;;;;;3.58;1.42;;;;;;;;;;4941128;28;20058;-72
2022/02/18 10:08:22;;;;;;;6.60;2.25;;;;;;;;;;4973855;28;20047;-74
2022/02/18 10:11:06;;;;;;;4.15;1.80;;;;;;;;;;4973606;28;20047;-73
2022/02/18 10:13:35;;;;;;;5.18;1.48;;;;;;;;;;4973940;28;20418;-73
2022/02/18 10:16:26;;;;;;;2.70;1.40;;;;;;;;;;4973667;28;20118;-73
2022/02/18 10:18:55;;;;;;;3.00;1.45;;;;;;;;;;4973591;28;20039;-74
2022/02/18 10:21:24;;;;;;;3.45;1.92;;;;;;;;;;4973556;28;20042;-72
2022/02/18 10:24:05;;;;;;;6.40;1.92;;;;;;;;;;4973223;28;20130;-74
2022/02/18 10:26:38;;;;;;;4.38;1.98;;;;;;;;;;4973521;28;20437;-75
2022/02/18 10:29:07;;;;;;;3.90;1.70;;;;;;;;;;4956291;28;20069;-72
2022/02/18 10:31:35;;;;;;;5.20;2.33;;;;;;;;;;4973393;28;20043;-74
2022/02/18 10:34:07;;;;;;;4.28;2.35;;;;;;;;;;4973431;28;20536;-73
2022/02/18 10:36:44;;;;;;;4.50;1.92;;;;;;;;;;4973388;28;20039;-73
2022/02/18 10:39:33;;;;;;;7.07;2.20;;;;;;;;;;4972746;28;20097;-73
2022/02/18 10:42:01;;;;;;;5.07;1.73;;;;;;;;;;4973286;28;20242;-74
2022/02/18 10:44:31;;;;;;;4.63;1.90;;;;;;;;;;4973316;28;20053;-75
2022/02/18 10:47:05;;;;;;;3.30;1.70;;;;;;;;;;4973311;28;20047;-74
2022/02/18 10:49:36;;;;;;;3.05;1.70;;;;;;;;;;4973455;28;20567;-74
2022/02/18 10:52:35;;;;;;;4.38;2.00;;;;;;;;;;4956284;28;20137;-72
2022/02/18 10:55:07;;;;;;;3.72;1.90;;;;;;;;;;4958311;28;20475;-73
2022/02/18 10:57:35;;;;;;;3.17;2.35;;;;;;;;;;4955817;28;20134;-74
2022/02/18 11:00:12;;;;;;;4.40;1.60;;;;;;;;;;4973352;28;20038;-74
2022/02/18 11:02:45;;;;;;;3.88;1.90;;;;;;;;;;4973338;28;20043;-74
2022/02/18 11:05:30;;;;;;;7.20;2.30;;;;;;;;;;4973171;28;20049;-75
2022/02/18 11:07:58;;;;;;;5.68;1.60;;;;;;;;;;4972805;28;20098;-72
2022/02/18 11:10:57;;;;;;;4.30;1.50;;;;;;;;;;4973298;28;20043;-73
2022/02/18 11:13:27;;;;;;;5.10;2.00;;;;;;;;;;4959499;28;20133;-73
2022/02/18 11:15:55;;;;;;;6.88;2.50;;;;;;;;;;4972809;28;20042;-74
2022/02/18 11:18:25;;;;;;;3.22;1.90;;;;;;;;;;4956161;28;20051;-74
2022/02/18 11:20:53;;;;;;;6.30;1.90;;;;;;;;;;4973362;28;20062;-75
2022/02/18 11:23:31;;;;;;;4.53;1.90;;;;;;;;;;4972751;28;20074;-73
2022/02/18 11:26:00;;;;;;;2.85;1.65;;;;;;;;;;4972030;28;20039;-75
2022/02/18 11:28:28;;;;;;;3.08;1.70;;;;;;;;;;4972631;28;20467;-73
2022/02/18 11:30:58;;;;;;;4.03;1.90;;;;;;;;;;4955735;28;20495;-74
2022/02/18 11:33:32;;;;;;;6.88;1.92;;;;;;;;;;4973746;28;20042;-73
2022/02/18 11:36:14;;;;;;;7.13;2.20;;;;;;;;;;4976390;28;20065;-73
2022/02/18 11:39:03;;;;;;;3.53;2.00;;;;;;;;;;4976508;28;20074;-74
2022/02/18 11:41:43;;;;;;;4.05;1.80;;;;;;;;;;4976379;28;20070;-72
2022/02/18 11:44:13;;;;;;;6.80;2.00;;;;;;;;;;4976225;28;20047;-73
2022/02/18 11:46:40;;;;;;;6.35;2.55;;;;;;;;;;4976385;28;20410;-74
2022/02/18 11:49:09;;;;;;;8.32;1.80;;;;;;;;;;4976205;28;20130;-74
2022/02/18 11:51:43;;;;;;;5.40;1.90;;;;;;;;;;4975870;28;20055;-72
2022/02/18 11:54:39;;;;;;;6.60;1.95;;;;;;;;;;4975869;28;20429;-73
2022/02/18 11:57:12;;;;;;;4.97;1.90;;;;;;;;;;4944826;28;20110;-73
2022/02/18 11:59:56;;;;;;;5.18;1.75;;;;;;;;;;4975715;28;20038;-71
2022/02/18 12:02:36;;;;;;;3.55;1.48;;;;;;;;;;4975337;28;20081;-72
2022/02/18 12:05:09;;;;;;;3.58;1.58;;;;;;;;;;4975792;28;20493;-74
2022/02/18 12:07:39;;;;;;;7.28;1.73;;;;;;;;;;4975622;28;20492;-72
2022/02/18 12:10:11;;;;;;;2.58;1.40;;;;;;;;;;4975631;28;20130;-73
2022/02/18 12:12:44;;;;;;;4.13;1.63;;;;;;;;;;4975882;28;20054;-72
2022/02/18 12:15:14;;;;;;;1.80;1.30;;;;;;;;;;4975827;28;20034;-73
2022/02/18 12:17:44;;;;;;;3.38;1.45;;;;;;;;;;4975852;28;20050;-75
2022/02/18 12:20:16;;;;;;;3.42;1.50;;;;;;;;;;4975457;28;20049;-73
2022/02/18 12:22:45;;;;;;;3.25;1.92;;;;;;;;;;4958092;28;20483;-74
2022/02/18 12:25:39;;;;;;;4.28;1.30;;;;;;;;;;4975756;28;20054;-72
2022/02/18 12:28:29;;;;;;;4.35;1.42;;;;;;;;;;4972382;28;20055;-73
2022/02/18 12:30:56;;;;;;;1.90;1.17;;;;;;;;;;4975139;28;20051;-71
2022/02/18 12:33:29;;;;;;;9.68;1.70;;;;;;;;;;4933990;28;20137;-72
2022/02/18 12:35:57;;;;;;;4.65;1.52;;;;;;;;;;4958271;28;20051;-72
2022/02/18 12:38:28;;;;;;;3.60;1.88;;;;;;;;;;4975445;28;20436;-73
2022/02/18 12:40:56;;;;;;;5.50;1.40;;;;;;;;;;4975401;28;20145;-74
2022/02/18 12:43:28;;;;;;;2.25;1.50;;;;;;;;;;4935640;29;20039;-73
2022/02/18 12:46:02;;;;;;;4.15;1.52;;;;;;;;;;4955171;28;20506;-75
2022/02/18 12:48:35;;;;;;;5.47;1.20;;;;;;;;;;4956278;29;20047;-72
2022/02/18 12:51:13;;;;;;;2.75;1.50;;;;;;;;;;4954744;29;20138;-73
2022/02/18 12:53:42;;;;;;;7.43;1.52;;;;;;;;;;4956317;29;20057;-73
2022/02/18 12:56:14;;;;;;;3.95;1.27;;;;;;;;;;4955453;29;20038;-74
2022/02/18 12:58:48;;;;;;;5.88;1.83;;;;;;;;;;4938579;29;20503;-74
2022/02/18 13:01:18;;;;;;;4.38;1.77;;;;;;;;;;4960289;28;20039;-73
2022/02/18 13:03:47;;;;;;;4.95;1.65;;;;;;;;;;4974537;28;20034;-72
2022/02/18 13:06:14;;;;;;;8.27;1.83;;;;;;;;;;4973762;28;20050;-74
2022/02/18 13:08:42;;;;;;;5.03;1.80;;;;;;;;;;4965459;28;20034;-73
2022/02/18 13:11:31;;;;;;;2.30;1.30;;;;;;;;;;4963759;28;20050;-73
2022/02/18 13:14:10;;;;;;;3.72;1.83;;;;;;;;;;4964554;28;20040;-74
2022/02/18 13:16:37;;;;;;;4.43;1.73;;;;;;;;;;4954311;28;20490;-71
2022/02/18 13:19:05;;;;;;;5.28;1.80;;;;;;;;;;4973639;28;20064;-72
2022/02/18 13:21:35;;;;;;;6.03;2.30;;;;;;;;;;4947372;29;20424;-73
2022/02/18 13:24:09;;;;;;;7.75;2.13;;;;;;;;;;4964932;28;20554;-72
2022/02/18 13:26:37;;;;;;;4.85;1.80;;;;;;;;;;4965098;28;20051;-73
2022/02/18 13:29:06;;;;;;;7.50;1.88;;;;;;;;;;4963918;28;20490;-72
2022/02/18 13:31:53;;;;;;;5.47;1.77;;;;;;;;;;4971437;28;20043;-73
2022/02/18 13:34:25;;;;;;;6.60;1.95;;;;;;;;;;4972856;28;20435;-71
2022/02/18 13:36:55;;;;;;;7.57;1.88;;;;;;;;;;4962251;28;20035;-73
2022/02/18 13:39:23;;;;;;;8.07;2.17;;;;;;;;;;4964396;28;20043;-71
2022/02/18 13:41:52;;;;;;;4.72;1.75;;;;;;;;;;4967937;28;20481;-73
2022/02/18 13:44:22;;;;;;;6.30;1.83;;;;;;;;;;4954814;28;20513;-72
2022/02/18 13:46:53;;;;;;;5.78;2.00;;;;;;;;;;4968747;28;20078;-71
2022/02/18 13:49:23;;;;;;;8.43;1.92;;;;;;;;;;4967061;28;20069;-71
2022/02/18 13:51:54;;;;;;;6.80;2.08;;;;;;;;;;4947988;28;20494;-71
2022/02/18 13:54:27;;;;;;;7.18;2.20;;;;;;;;;;4963527;28;20046;-74
2022/02/18 13:57:05;;;;;;;10.52;1.70;;;;;;;;;;4966305;28;20046;-72
2022/02/18 13:59:33;;;;;;;6.57;2.20;;;;;;;;;;4959277;28;20045;-71
2022/02/18 14:02:03;;;;;;;8.07;2.47;;;;;;;;;;4953666;28;20031;-73
2022/02/18 14:04:34;;;;;;;6.53;1.92;;;;;;;;;;4953596;28;20045;-72
2022/02/18 14:07:07;;;;;;;5.18;2.00;;;;;;;;;;4937688;28;20051;-73
2022/02/18 14:09:40;;;;;;;9.88;2.25;;;;;;;;;;4937218;28;20498;-72
2022/02/18 14:12:09;;;;;;;6.07;2.38;;;;;;;;;;4954131;28;20113;-71
2022/02/18 14:14:38;;;;;;;10.90;2.30;;;;;;;;;;4937330;28;20118;-74
2022/02/18 14:17:06;;;;;;;4.97;1.95;;;;;;;;;;4953789;28;20058;-73
2022/02/18 14:19:47;;;;;;;8.13;2.42;;;;;;;;;;4953350;28;20471;-72
2022/02/18 14:22:38;;;;;;;7.10;1.98;;;;;;;;;;4954003;28;20090;-72
2022/02/18 14:25:29;;;;;;;6.25;2.38;;;;;;;;;;4922066;28;20055;-71
2022/02/18 14:27:58;;;;;;;7.20;2.20;;;;;;;;;;4953684;28;20058;-71
2022/02/18 14:31:02;;;;;;;8.82;2.13;;;;;;;;;;4953628;28;20456;-72
2022/02/18 14:33:29;;;;;;;;;;;;;;;;;;4914044;28;20152;-73
2022/02/18 14:36:01;;;;;;;6.53;1.85;;;;;;;;;;4936637;28;19922;-75
2022/02/18 14:38:30;;;;;;;6.97;2.50;;;;;;;;;;4956055;28;20043;-72
2022/02/18 14:40:59;;;;;;;9.57;2.13;;;;;;;;;;4953769;28;20464;-74
2022/02/18 14:43:29;;;;;;;7.82;2.20;;;;;;;;;;4953322;28;20538;-74
2022/02/18 14:46:08;;;;;;;6.63;1.92;;;;;;;;;;4953607;28;20123;-75
2022/02/18 14:48:38;;;;;;;16.35;4.18;;;;;;;;;;4953600;28;20110;-72
2022/02/18 14:51:05;;;;;;;7.38;2.17;;;;;;;;;;4954054;28;20357;-73
2022/02/18 14:53:33;;;;;;;8.52;2.25;;;;;;;;;;4954348;29;20045;-75
2022/02/18 14:56:01;;;;;;;10.70;2.38;;;;;;;;;;4963934;28;20039;-74
2022/02/18 14:58:29;;;;;;;10.63;2.42;;;;;;;;;;4972769;28;20518;-75
2022/02/18 15:00:56;;;;;;;7.00;2.40;;;;;;;;;;4972679;28;20118;-72
2022/02/18 15:03:24;;;;;;;7.60;2.50;;;;;;;;;;4973002;28;20039;-73